Steptoe Valley WMA, Nevada Weather observations

Data are for 10 minute period ending at time listed.
 Day   Time   Solar   Ave.   Ave.  Ave.  Vector  Max.   Baro.   Total    
  of    of     Rad.   Air    Rel.  Wind   Wind   Wind  Press.  Precip.   
Year   Day            Temp.  Hum.  Speed  Dir.   Gust                    
2016   (PST)  Kw/m2    F      %     mph   deg.    mph    mb.     in.     
-------------------------------------------------------------------------
 240   12:00   0.90   76.1    16    4.7   349    12.7   805.2    0.00 
 240   12:10   0.67   75.9    16    5.2   302     9.6   805.1    0.00 
 240   12:20   0.90   77.6    17    4.7   256    13.4   805.0    0.00 
 240   12:30   0.88   77.8    15    6.2   292    16.6   805.0    0.00 
 240   12:40   0.89   77.6    15    6.7   280    14.9   804.9    0.00 
 240   12:50   0.87   78.0    13    8.1   348    14.8   804.8    0.00 
 240   13:00   0.86   78.0    13    3.6   204     9.6   804.7    0.00 
 240   13:10   0.85   78.4    13    5.5   295    14.1   804.5    0.00 
 240   13:20   0.83   79.0    14    6.3   301    11.9   804.4    0.00 
 240   13:30   0.82   79.7    13    5.5   326    13.4   804.3    0.00 
 240   13:40   0.80   79.8    13    7.1   338    14.2   804.2    0.00 
 240   13:50   0.79   80.4    13    6.3     1    14.2   804.0    0.00 
 240   14:00   0.80   79.7    12    6.1    46    11.8   803.9    0.00 
 240   14:10   0.43   78.6    13    7.3    39    13.5   803.9    0.00 
 240   14:20   0.18   76.1    14    4.3    18    12.3   803.9    0.00 
 240   14:30   0.43   78.0    14    3.2   309    10.4   803.9    0.00 
 240   14:40   0.10   76.1    14    6.4   342    14.9   803.9    0.00 
 240   14:50   0.26   74.9    14    6.3   342    14.3   803.8    0.00 
 240   15:00   0.63   79.3    12    2.9   353     7.8   803.7    0.00 
 240   15:10   0.48   80.2    12    7.0     1    16.2   803.6    0.00 
 240   15:20   0.49   79.3    12    6.7     3    13.6   803.6    0.00 
 240   15:30   0.32   78.7    12    8.2     2    16.1   803.7    0.00 
 240   15:40   0.43   78.7    11    4.5     6    10.4   803.7    0.00 
 240   15:50   0.46   80.1    11    4.4   348     9.3   803.6    0.00 
 240   16:00   0.42   80.3    11    3.6   310     6.4   803.6    0.00 
 240   16:10   0.39   80.3    11    5.0   329    12.3   803.6    0.00 
 240   16:20   0.36   80.8    10    1.9   249     7.0   803.6    0.00 
 240   16:30   0.32   80.9    10    3.3   333     7.9   803.5    0.00 
 240   16:40   0.29   80.3    10    4.0   358     9.1   803.5    0.00 
 240   16:50   0.26   79.6    11    5.6   347    12.9   803.5    0.00 
 240   17:00   0.23   79.0    10    5.4    13    13.4   803.5    0.00 
 240   17:10   0.19   78.4    11    5.1   326    10.7   803.5    0.00 
 240   17:20   0.16   77.3    13    5.0   320     9.0   803.6    0.00 
 240   17:30   0.13   76.2    14    3.5   330     6.1   803.6    0.00 
 240   17:40   0.10   74.6    15    3.8   339     6.7   803.6    0.00 
 240   17:50   0.08   72.8    15    4.3   350     6.9   803.6    0.00 
 240   18:00   0.05   71.2    14    4.0   356     7.6   803.7    0.00 
 240   18:10   0.02   70.3    13    2.6   349     5.1   803.7    0.00 
 240   18:20   0.01   65.1    18    2.4    20     4.9   803.8    0.00 
 240   18:30   0.00   66.8    15    3.1    26     4.8   803.8    0.00 
 240   18:40   0.00   63.1    20    1.5   166     5.2   803.9    0.00 
 240   18:50   0.00   57.9    26    2.8   157     4.8   803.9    0.00 
 240   19:00   0.00   59.1    20    2.5   150     3.4   803.8    0.00 
 240   19:10   0.00   59.0    18    2.5   143     3.3   803.8    0.00 
 240   19:20   0.00   56.6    26    2.3   144     4.3   803.8    0.00 
 240   19:30   0.00   51.8    29    2.1   135     4.2   803.8    0.00 
 240   19:40   0.00   49.8    37    2.4   180     3.6   804.0    0.00 
 240   19:50   0.00   42.9    48    2.3   177     4.1   804.2    0.00 
 240   20:00   0.00   41.1    52    2.4   179     3.2   804.3    0.00 
 240   20:10   0.00   42.6    39    2.2   164     4.6   804.5    0.00 
 240   20:20   0.00   44.6    30    4.2   166     6.5   804.6    0.00 
 240   20:30   0.00   50.6    25    6.8   152    11.6   804.8    0.00 
 240   20:40   0.00   57.3    18    7.8   126    11.0   804.9    0.00 
 240   20:50   0.00   58.4    25    6.6   141    10.7   805.0    0.00 
 240   21:00   0.00   61.5    38    9.3   146    13.7   804.9    0.00 
 240   21:10   0.00   62.8    40    9.3   151    14.4   805.0    0.00 
 240   21:20   0.00   62.5    41    7.5   151    11.8   805.2    0.00 
 240   21:30   0.00   62.3    43    8.2   145    12.6   805.2    0.00 
 240   21:40   0.00   62.0    45    7.9   146    13.8   805.5    0.00 
 240   21:50   0.00   60.8    48    5.3   167     9.2   805.6    0.00 
 240   22:00   0.00   60.7    48    9.1   147    14.2   805.7    0.00 
 240   22:10   0.00   60.7    48    8.2   150    12.5   805.7    0.00 
 240   22:20   0.00   59.4    51    6.4   153    11.1   805.8    0.00 
 240   22:30   0.00   57.6    52    4.4   156     6.6   805.9    0.00 
 240   22:40   0.00   54.0    58    3.1   197     4.2   805.9    0.00 
 240   22:50   0.00   48.3    69    3.5   163     5.6   806.0    0.00 
 240   23:00   0.00   47.8    67    3.3   166     5.3   806.1    0.00 
 240   23:10   0.00   47.3    70    1.8   150     3.5   806.3    0.00 
 240   23:20   0.00   47.0    69    2.8   159     3.7   806.4    0.00 
 240   23:30   0.00   46.6    69    3.0   176     3.5   806.5    0.00 
 240   23:40   0.00   45.0    73    3.0   173     5.6   806.5    0.00 
 240   23:50   0.00   45.4    72    3.3   194     4.2   806.5    0.00 
 241    0:00   0.00   42.8    76    2.9   181     3.7   806.6    0.00 
 241    0:10   0.00   42.5    77    3.4   155     4.4   806.7    0.00 
 241    0:20   0.00   44.2    74    3.9   164     5.2   806.8    0.00 
 241    0:30   0.00   44.8    72    3.7   162     5.0   806.8    0.00 
 241    0:40   0.00   44.4    73    3.9   155     5.1   807.0    0.00 
 241    0:50   0.00   43.8    72    3.4   169     5.2   807.0    0.00 
 241    1:00   0.00   41.7    79    3.4   166     5.6   807.0    0.00 
 241    1:10   0.00   41.8    82    3.8   162     5.0   807.1    0.00 
 241    1:20   0.00   41.7    80    4.1   159     5.5   807.1    0.00 
 241    1:30   0.00   42.2    80    3.5   181     6.1   807.2    0.00 
 241    1:40   0.00   39.2    82    2.4   173     3.1   807.2    0.00 
 241    1:50   0.00   39.0    85    3.7   171     4.7   807.2    0.00 
 241    2:00   0.00   39.2    85    3.8   169     5.9   807.2    0.00 
 241    2:10   0.00   40.9    83    4.0   166     5.7   807.3    0.00 
 241    2:20   0.00   41.8    81    3.0   160     4.6   807.3    0.00 
 241    2:30   0.00   41.5    80    2.8   169     4.4   807.4    0.00 
 241    2:40   0.00   40.2    81    2.2   172     3.5   807.5    0.00 
 241    2:50   0.00   40.1    84    2.1   160     3.2   807.6    0.00 
 241    3:00   0.00   40.7    84    2.0   137     3.7   807.7    0.00 
 241    3:10   0.00   42.6    80    2.3   108     4.0   807.7    0.00 
 241    3:20   0.00   41.8    79    2.0   175     3.6   807.7    0.00 
 241    3:30   0.00   40.4    79    2.8   163     3.9   807.7    0.00 
 241    3:40   0.00   39.1    81    2.1   173     3.5   807.8    0.00 
 241    3:50   0.00   38.3    83    1.8   164     4.0   807.8    0.00 
 241    4:00   0.00   39.6    87    2.9   162     4.1   807.8    0.00 
 241    4:10   0.00   40.5    86    3.4   157     4.4   807.8    0.00 
 241    4:20   0.00   40.3    86    2.9   160     3.8   807.8    0.00 
 241    4:30   0.00   38.9    85    1.8   186     3.0   807.9    0.00 
 241    4:40   0.00   36.1    86    0.9   346     2.3   808.0    0.00 
 241    4:50   0.00   38.5    87    3.3   146     5.8   808.0    0.00 
 241    5:00   0.00   36.8    85    2.6   171     4.0   808.1    0.00 
 241    5:10   0.00   35.3    87    3.5   174     5.6   808.1    0.00 
 241    5:20   0.01   34.4    88    3.4   182     4.5   808.2    0.00 
 241    5:30   0.01   33.9    90    3.2   175     4.5   808.4    0.00 
 241    5:40   0.02   35.0    91    2.8   170     3.9   808.5    0.00 
 241    5:50   0.02   36.5    92    4.2   173     6.2   808.6    0.00 
 241    6:00   0.02   37.9    90    4.0   166     5.9   808.7    0.00 
 241    6:10   0.08   38.8    90    3.8   169     5.3   808.8    0.00 
 241    6:20   0.17   41.7    87    2.6   154     4.1   808.8    0.00 
 241    6:30   0.20   45.2    82    3.2   162     4.9   808.8    0.00 
 241    6:40   0.23   49.0    74    2.8   171     5.0   808.9    0.00 
 241    6:50   0.27   52.2    68    2.1   170     3.5   808.9    0.00 
 241    7:00   0.30   54.9    64    4.2   188     6.5   808.8    0.00 
 241    7:10   0.34   56.3    61    4.4   192     6.6   808.8    0.00 
 241    7:20   0.37   57.8    56    5.1   184     7.0   808.7    0.00 
 241    7:30   0.40   59.1    52    4.5   180     6.8   808.7    0.00 
 241    7:40   0.44   60.7    50    4.8   182     6.9   808.5    0.00 
 241    7:50   0.47   62.5    47    4.8   173     6.6   808.5    0.00 
 241    8:00   0.50   64.6    45    4.1   188     6.1   808.5    0.00 
 241    8:10   0.53   65.9    42    3.6   178     7.0   808.6    0.00 
 241    8:20   0.56   67.4    39    2.5   207     4.5   808.6    0.00 
 241    8:30   0.59   68.5    38    2.0   213     4.0   808.7    0.00 
 241    8:40   0.62   69.4    36    2.0   208     5.2   808.7    0.00 
 241    8:50   0.65   69.2    36    1.8   251     4.7   808.9    0.00 
 241    9:00   0.67   71.6    33    2.8   199     4.7   808.9    0.00 
 241    9:10   0.70   72.9    31    1.7   209     5.3   809.0    0.00 
 241    9:20   0.72   73.0    29    3.0   348     8.5   809.1    0.00 
 241    9:30   0.75   73.3    30    2.8   338     7.8   809.0    0.00 
 241    9:40   0.77   74.1    29    4.7   351    10.4   809.0    0.00 
 241    9:50   0.79   75.3    26    6.9   339    10.5   808.9    0.00 
 241   10:00   0.80   77.0    23    7.1   338    12.6   808.8    0.00 
 241   10:10   0.82   77.5    21    8.3   348    14.2   808.8    0.00 
 241   10:20   0.84   78.4    16    7.9   350    12.2   808.8    0.00 
 241   10:30   0.85   78.5    15    9.6   344    16.1   808.8    0.00 
 241   10:40   0.86   78.8    15    7.2   323    16.2   808.8    0.00 
 241   10:50   0.87   78.9    16    8.0   330    15.1   808.7    0.00 
 241   11:00   0.88   79.2    15    6.4   337    11.8   808.7    0.00 
 241   11:10   0.89   79.7    14    6.8   350    14.0   808.6    0.00 
 241   11:20   0.90   79.6    14    6.2   360    14.0   808.6    0.00 
 241   11:30   0.90   80.0    15    5.0   237    10.9   808.5    0.00 
 241   11:40   0.90   80.0    15    4.5   242    10.1   808.5    0.00 
 241   11:50   0.91   80.6    15    2.8   245     7.9   808.4    0.00 

Return to Steptoe Valley WMA graphs page.


Western Regional Climate Center,wrcc@dri.edu